Time;durP1;ratioP1;P1;durP2;ratioP2;P2;SDS_P1;SDS_P2;PMS_P1;PMS_P2;Temp;Humidity;BMP_temperature;BMP_pressure;BME280_temperature;BME280_humidity;BME280_pressure;Samples;Min_cycle;Max_cycle;Signal;HPM_P1;HPM_P2
2022/12/26 00:00:53;;;;;;;47.50;13.93;;;;;;;;;;5110301;27;20060;-80
2022/12/26 00:03:19;;;;;;;49.38;14.32;;;;;;;;;;5111708;27;20105;-80
2022/12/26 00:05:46;;;;;;;38.08;13.55;;;;;;;;;;5111487;27;20064;-80
2022/12/26 00:08:12;;;;;;;43.08;13.27;;;;;;;;;;5111247;27;20048;-80
2022/12/26 00:10:39;;;;;;;49.30;14.50;;;;;;;;;;5110704;27;20052;-80
2022/12/26 00:13:05;;;;;;;43.28;14.13;;;;;;;;;;5107161;27;20062;-81
2022/12/26 00:15:51;;;;;;;46.80;14.43;;;;;;;;;;5111343;27;20090;-81
2022/12/26 00:18:18;;;;;;;44.53;15.05;;;;;;;;;;5103919;27;20063;-81
2022/12/26 00:20:44;;;;;;;55.45;15.48;;;;;;;;;;5108173;27;20052;-81
2022/12/26 00:23:10;;;;;;;50.70;15.40;;;;;;;;;;5102674;27;20053;-80
2022/12/26 00:25:37;;;;;;;47.00;15.48;;;;;;;;;;5111599;27;20052;-81
2022/12/26 00:28:03;;;;;;;57.97;15.48;;;;;;;;;;5096628;27;20053;-81
2022/12/26 00:30:29;;;;;;;55.60;15.60;;;;;;;;;;5110105;27;20058;-80
2022/12/26 00:32:56;;;;;;;60.30;16.08;;;;;;;;;;5103992;27;20060;-80
2022/12/26 00:35:22;;;;;;;53.05;15.63;;;;;;;;;;5101020;28;20135;-80
2022/12/26 00:37:48;;;;;;;54.17;15.63;;;;;;;;;;5110015;27;20051;-80
2022/12/26 00:40:15;;;;;;;59.03;15.25;;;;;;;;;;5102763;27;20054;-81
2022/12/26 00:42:41;;;;;;;61.05;14.40;;;;;;;;;;5103374;27;20051;-81
2022/12/26 00:45:08;;;;;;;59.60;15.50;;;;;;;;;;5104010;27;20094;-81
2022/12/26 00:47:34;;;;;;;63.75;16.15;;;;;;;;;;5109697;27;20068;-82
2022/12/26 00:50:00;;;;;;;59.58;15.88;;;;;;;;;;5103169;27;20107;-81
2022/12/26 00:52:40;;;;;;;58.05;14.73;;;;;;;;;;5109356;27;20051;-82
2022/12/26 00:55:07;;;;;;;54.70;14.18;;;;;;;;;;5102117;27;20067;-82
2022/12/26 00:57:36;;;;;;;55.55;14.70;;;;;;;;;;5099236;27;20502;-82
2022/12/26 01:00:03;;;;;;;47.00;14.85;;;;;;;;;;5108237;27;20048;-82
2022/12/26 01:02:39;;;;;;;48.70;13.77;;;;;;;;;;5105152;27;20055;-82
2022/12/26 01:05:07;;;;;;;41.05;13.38;;;;;;;;;;5108109;27;20503;-82
2022/12/26 01:07:35;;;;;;;48.00;14.30;;;;;;;;;;5105086;27;20055;-82
2022/12/26 01:10:21;;;;;;;48.03;13.98;;;;;;;;;;5120613;27;20779;-81
2022/12/26 01:12:47;;;;;;;51.58;14.35;;;;;;;;;;5100873;27;20053;-81
2022/12/26 01:15:14;;;;;;;52.28;14.75;;;;;;;;;;5117007;27;20514;-81
2022/12/26 01:17:40;;;;;;;48.05;15.25;;;;;;;;;;5109989;27;20617;-81
2022/12/26 01:20:07;;;;;;;54.72;16.15;;;;;;;;;;5108435;27;20062;-81
2022/12/26 01:22:33;;;;;;;57.50;16.77;;;;;;;;;;5106578;27;20087;-81
2022/12/26 01:25:00;;;;;;;66.18;16.65;;;;;;;;;;5107400;27;20536;-81
2022/12/26 01:27:26;;;;;;;59.45;17.08;;;;;;;;;;5111234;27;20109;-82
2022/12/26 01:29:53;;;;;;;57.63;17.35;;;;;;;;;;5111187;27;20109;-81
2022/12/26 01:32:19;;;;;;;61.83;16.08;;;;;;;;;;5103574;27;20137;-82
2022/12/26 01:34:46;;;;;;;56.65;16.55;;;;;;;;;;5108011;27;20155;-82
2022/12/26 01:37:12;;;;;;;53.05;16.52;;;;;;;;;;5100555;27;20139;-82
2022/12/26 01:39:40;;;;;;;56.65;17.05;;;;;;;;;;5107491;27;20129;-81
2022/12/26 01:42:11;;;;;;;61.35;16.25;;;;;;;;;;5109425;27;20048;-81
2022/12/26 01:44:59;;;;;;;56.15;15.07;;;;;;;;;;5102656;27;20537;-81
2022/12/26 01:47:34;;;;;;;44.63;15.00;;;;;;;;;;5104193;27;20527;-81
2022/12/26 01:50:01;;;;;;;59.08;16.60;;;;;;;;;;5110352;27;20052;-81
2022/12/26 01:52:27;;;;;;;56.17;17.05;;;;;;;;;;5099596;27;20079;-81
2022/12/26 01:54:54;;;;;;;54.53;17.50;;;;;;;;;;5097032;27;20060;-81
2022/12/26 01:57:23;;;;;;;54.50;17.45;;;;;;;;;;5105919;28;20074;-81
2022/12/26 01:59:50;;;;;;;53.03;16.75;;;;;;;;;;5107299;27;20879;-81
2022/12/26 02:02:18;;;;;;;57.28;17.58;;;;;;;;;;5102724;28;20048;-81
2022/12/26 02:07:37;;;;;;;60.90;18.05;;;;;;;;;;5102623;27;20056;-80
2022/12/26 02:10:06;;;;;;;60.10;18.90;;;;;;;;;;5099120;27;20055;-81
2022/12/26 02:12:33;;;;;;;56.47;18.00;;;;;;;;;;5100870;28;20094;-81
2022/12/26 02:15:06;;;;;;;54.97;18.38;;;;;;;;;;5108552;27;20060;-81
2022/12/26 02:17:32;;;;;;;58.25;19.33;;;;;;;;;;5108820;27;20063;-81
2022/12/26 02:20:11;;;;;;;61.25;19.23;;;;;;;;;;5109879;27;20056;-80
2022/12/26 02:22:56;;;;;;;57.38;19.70;;;;;;;;;;5109867;27;20139;-80
2022/12/26 02:25:38;;;;;;;63.03;19.27;;;;;;;;;;5103734;27;20118;-80
2022/12/26 02:28:07;;;;;;;59.55;20.10;;;;;;;;;;5097812;27;20060;-81
2022/12/26 02:30:38;;;;;;;59.03;19.60;;;;;;;;;;5105426;27;20049;-80
2022/12/26 02:33:04;;;;;;;;;;;;;;;;;;5094365;27;20043;-81
2022/12/26 02:35:46;;;;;;;65.70;19.52;;;;;;;;;;5095106;28;46736;-81
2022/12/26 02:38:31;;;;;;;50.78;18.92;;;;;;;;;;5106555;27;20147;-80
2022/12/26 02:40:57;;;;;;;60.83;20.40;;;;;;;;;;5107489;28;20052;-80
2022/12/26 02:43:39;;;;;;;51.55;19.98;;;;;;;;;;5096314;27;20151;-81
2022/12/26 02:49:18;;;;;;;53.95;19.73;;;;;;;;;;5109438;27;20379;-81
2022/12/26 03:14:27;;;;;;;42.55;16.05;;;;;;;;;;5103806;27;45697;-81
2022/12/26 03:17:20;;;;;;;47.30;18.33;;;;;;;;;;5104686;27;20056;-81
2022/12/26 03:20:01;;;;;;;49.33;19.55;;;;;;;;;;5105454;27;20052;-81
2022/12/26 03:22:36;;;;;;;56.03;19.83;;;;;;;;;;5103463;27;20110;-81
2022/12/26 03:27:59;;;;;;;52.92;21.02;;;;;;;;;;5095243;27;20049;-81
2022/12/26 03:35:57;;;;;;;51.75;21.17;;;;;;;;;;5106014;27;20147;-81
2022/12/26 03:38:27;;;;;;;44.03;19.30;;;;;;;;;;5100749;27;20172;-81
2022/12/26 04:20:57;;;;;;;34.08;15.63;;;;;;;;;;5105516;27;20134;-80
2022/12/26 04:46:18;;;;;;;39.00;17.52;;;;;;;;;;5110179;27;20125;-81
2022/12/26 04:51:32;;;;;;;46.83;18.25;;;;;;;;;;5102700;27;20052;-81
2022/12/26 04:53:58;;;;;;;43.58;17.98;;;;;;;;;;5112348;27;20048;-80
2022/12/26 04:56:25;;;;;;;45.50;18.45;;;;;;;;;;5102575;28;20135;-81
2022/12/26 04:58:51;;;;;;;47.33;19.52;;;;;;;;;;5111360;27;20036;-81
2022/12/26 05:09:35;;;;;;;41.72;17.50;;;;;;;;;;5100057;27;20057;-80
2022/12/26 05:12:02;;;;;;;42.65;17.35;;;;;;;;;;5108740;27;20071;-81
2022/12/26 05:14:30;;;;;;;43.30;17.10;;;;;;;;;;5109167;27;20139;-81
2022/12/26 05:30:47;;;;;;;29.63;14.52;;;;;;;;;;5110386;27;20067;-81
2022/12/26 05:35:59;;;;;;;33.35;13.73;;;;;;;;;;5110600;27;20048;-81
2022/12/26 05:38:26;;;;;;;31.67;13.98;;;;;;;;;;5109411;27;20084;-81
2022/12/26 05:40:52;;;;;;;31.45;14.10;;;;;;;;;;5109457;27;20135;-81
2022/12/26 05:43:18;;;;;;;28.83;12.43;;;;;;;;;;5108747;27;20083;-81
2022/12/26 05:45:45;;;;;;;25.08;11.38;;;;;;;;;;5109924;27;20055;-80
2022/12/26 05:48:11;;;;;;;24.23;11.43;;;;;;;;;;5102612;27;20143;-81
2022/12/26 05:50:37;;;;;;;25.50;11.15;;;;;;;;;;5107544;27;20078;-81
2022/12/26 05:53:04;;;;;;;24.23;11.05;;;;;;;;;;5110421;27;20056;-80
2022/12/26 05:55:30;;;;;;;22.20;11.00;;;;;;;;;;5110595;27;20595;-80
2022/12/26 05:57:58;;;;;;;25.55;12.05;;;;;;;;;;5108614;27;20052;-80
2022/12/26 06:00:25;;;;;;;26.52;10.93;;;;;;;;;;5107030;27;20079;-79
2022/12/26 06:02:51;;;;;;;19.08;9.48;;;;;;;;;;5110393;27;20159;-79
2022/12/26 06:05:18;;;;;;;22.45;10.35;;;;;;;;;;5101539;27;20045;-80
2022/12/26 06:07:44;;;;;;;19.83;8.85;;;;;;;;;;5106067;27;20052;-79
2022/12/26 06:10:11;;;;;;;20.83;10.10;;;;;;;;;;5106451;27;20052;-80
2022/12/26 06:12:37;;;;;;;19.77;8.82;;;;;;;;;;5108548;27;20143;-79
2022/12/26 06:15:04;;;;;;;16.95;8.35;;;;;;;;;;5109992;27;20056;-80
2022/12/26 06:17:30;;;;;;;17.67;8.43;;;;;;;;;;5109896;27;20052;-79
2022/12/26 06:19:57;;;;;;;17.63;7.68;;;;;;;;;;5101540;27;20104;-79
2022/12/26 06:22:23;;;;;;;16.48;8.27;;;;;;;;;;5109009;27;20072;-79
2022/12/26 06:24:49;;;;;;;18.13;7.72;;;;;;;;;;5108971;27;20139;-79
2022/12/26 06:27:16;;;;;;;17.02;8.15;;;;;;;;;;5109943;27;20056;-80
2022/12/26 06:29:42;;;;;;;15.65;8.18;;;;;;;;;;5098170;27;20051;-79
2022/12/26 06:32:08;;;;;;;19.13;8.25;;;;;;;;;;5107090;27;20048;-79
2022/12/26 06:34:35;;;;;;;16.52;8.27;;;;;;;;;;5109959;27;20062;-80
2022/12/26 06:37:01;;;;;;;20.40;8.20;;;;;;;;;;5105919;27;20056;-79
2022/12/26 06:39:27;;;;;;;19.92;8.27;;;;;;;;;;5108573;27;20048;-79
2022/12/26 06:41:54;;;;;;;18.42;8.10;;;;;;;;;;5101028;27;20537;-80
2022/12/26 06:44:21;;;;;;;18.35;8.20;;;;;;;;;;5108997;27;20151;-79
2022/12/26 06:46:47;;;;;;;16.90;8.25;;;;;;;;;;5102741;27;20052;-80
2022/12/26 06:49:14;;;;;;;22.75;8.10;;;;;;;;;;5108902;27;20510;-80
2022/12/26 06:51:40;;;;;;;17.52;8.25;;;;;;;;;;5107676;27;20044;-80
2022/12/26 06:54:06;;;;;;;15.98;7.80;;;;;;;;;;5103260;27;20060;-80
2022/12/26 06:56:34;;;;;;;17.30;7.95;;;;;;;;;;5105983;27;20483;-80
2022/12/26 06:59:02;;;;;;;15.07;7.03;;;;;;;;;;5101088;27;20058;-79
2022/12/26 07:01:29;;;;;;;16.45;7.18;;;;;;;;;;5103946;27;20495;-80
2022/12/26 07:03:56;;;;;;;16.00;7.13;;;;;;;;;;5091293;28;20115;-80
2022/12/26 07:06:26;;;;;;;16.83;7.50;;;;;;;;;;5098623;28;20048;-80
2022/12/26 07:08:53;;;;;;;14.75;6.95;;;;;;;;;;5107503;27;20048;-80
2022/12/26 07:11:21;;;;;;;16.10;7.15;;;;;;;;;;5107922;28;20140;-80
2022/12/26 07:13:48;;;;;;;15.25;6.78;;;;;;;;;;5106008;27;20055;-80
2022/12/26 07:16:14;;;;;;;16.60;7.32;;;;;;;;;;5098978;27;20056;-80
2022/12/26 07:18:41;;;;;;;14.98;7.50;;;;;;;;;;5105997;27;20060;-80
2022/12/26 07:21:09;;;;;;;16.30;6.93;;;;;;;;;;5106090;27;20056;-80
2022/12/26 07:23:35;;;;;;;16.00;7.32;;;;;;;;;;5103557;27;20071;-80
2022/12/26 07:26:02;;;;;;;14.75;7.22;;;;;;;;;;5100375;27;20044;-80
2022/12/26 07:28:31;;;;;;;14.38;7.05;;;;;;;;;;5107399;27;20105;-80
2022/12/26 07:30:59;;;;;;;16.90;7.30;;;;;;;;;;5105861;27;20451;-80
2022/12/26 07:33:26;;;;;;;11.68;5.88;;;;;;;;;;5100116;27;20103;-80
2022/12/26 07:35:52;;;;;;;14.88;7.25;;;;;;;;;;5109193;27;20052;-81
2022/12/26 07:38:18;;;;;;;14.52;6.35;;;;;;;;;;5106800;27;20049;-81
2022/12/26 07:40:45;;;;;;;14.50;6.60;;;;;;;;;;5100883;27;20517;-81
2022/12/26 07:43:11;;;;;;;15.43;6.30;;;;;;;;;;5105904;27;20060;-80
2022/12/26 07:45:37;;;;;;;13.68;6.30;;;;;;;;;;5103597;27;20053;-80
2022/12/26 07:48:11;;;;;;;14.70;6.10;;;;;;;;;;5097900;28;20053;-81
2022/12/26 07:50:37;;;;;;;14.57;7.10;;;;;;;;;;5099344;27;20228;-80
2022/12/26 07:53:03;;;;;;;19.10;6.60;;;;;;;;;;5097410;27;20052;-80
2022/12/26 07:55:30;;;;;;;12.45;6.22;;;;;;;;;;5104986;27;20521;-80
2022/12/26 07:57:56;;;;;;;13.82;6.13;;;;;;;;;;5103447;27;20946;-81
2022/12/26 08:00:23;;;;;;;14.68;6.10;;;;;;;;;;5103084;27;20040;-80
2022/12/26 08:02:49;;;;;;;18.38;6.25;;;;;;;;;;5105885;27;20125;-80
2022/12/26 08:05:16;;;;;;;14.23;5.63;;;;;;;;;;5111366;27;20048;-80
2022/12/26 08:07:45;;;;;;;17.77;6.00;;;;;;;;;;5106487;27;20937;-80
2022/12/26 08:10:11;;;;;;;12.90;5.70;;;;;;;;;;5111270;27;20060;-80
2022/12/26 08:12:37;;;;;;;12.15;5.38;;;;;;;;;;5110705;27;20061;-80
2022/12/26 08:15:04;;;;;;;9.93;5.40;;;;;;;;;;5105971;27;20060;-80
2022/12/26 08:17:31;;;;;;;20.40;12.10;;;;;;;;;;5107165;27;20060;-80
2022/12/26 08:19:57;;;;;;;17.58;9.65;;;;;;;;;;5111508;27;20059;-81
2022/12/26 08:22:24;;;;;;;18.38;10.30;;;;;;;;;;5107160;27;20052;-80
2022/12/26 08:24:50;;;;;;;16.40;7.53;;;;;;;;;;5106683;27;20104;-80
2022/12/26 08:27:20;;;;;;;14.35;7.68;;;;;;;;;;5103652;27;20060;-80
2022/12/26 08:29:46;;;;;;;10.52;4.85;;;;;;;;;;5110468;27;20060;-81
2022/12/26 08:32:13;;;;;;;10.85;4.40;;;;;;;;;;5110431;27;20044;-80
2022/12/26 08:34:39;;;;;;;15.73;6.22;;;;;;;;;;5111141;27;20059;-80
2022/12/26 08:37:06;;;;;;;11.48;5.85;;;;;;;;;;5109881;27;20537;-80
2022/12/26 08:39:32;;;;;;;9.57;4.35;;;;;;;;;;5111724;27;20938;-81
2022/12/26 08:41:59;;;;;;;9.93;4.88;;;;;;;;;;5096906;27;20056;-80
2022/12/26 08:44:25;;;;;;;12.13;5.25;;;;;;;;;;5110351;27;20079;-80
2022/12/26 08:46:54;;;;;;;12.38;4.70;;;;;;;;;;5108460;27;20105;-80
2022/12/26 08:49:21;;;;;;;9.68;4.75;;;;;;;;;;5111469;27;20060;-81
2022/12/26 08:51:50;;;;;;;12.95;4.78;;;;;;;;;;5108397;27;20507;-81
2022/12/26 08:54:17;;;;;;;13.82;5.28;;;;;;;;;;5106589;28;20059;-79
2022/12/26 08:56:51;;;;;;;11.32;4.65;;;;;;;;;;5111282;27;20078;-79
2022/12/26 08:59:19;;;;;;;12.35;5.18;;;;;;;;;;5094647;27;20184;-81
2022/12/26 09:01:45;;;;;;;12.32;5.30;;;;;;;;;;5111768;27;20048;-78
2022/12/26 09:04:12;;;;;;;14.88;5.22;;;;;;;;;;5109973;28;20719;-78
2022/12/26 09:06:39;;;;;;;10.15;3.80;;;;;;;;;;5114414;27;20079;-80
2022/12/26 09:09:07;;;;;;;8.90;4.22;;;;;;;;;;5111088;27;20044;-79
2022/12/26 09:11:34;;;;;;;8.98;4.70;;;;;;;;;;5110213;28;20063;-81
2022/12/26 09:14:02;;;;;;;14.05;4.28;;;;;;;;;;5110652;27;20431;-80
2022/12/26 09:16:29;;;;;;;13.60;4.40;;;;;;;;;;5099806;27;20511;-81
2022/12/26 09:19:04;;;;;;;12.88;4.75;;;;;;;;;;5098206;27;20056;-81
2022/12/26 09:21:31;;;;;;;9.13;3.78;;;;;;;;;;5098099;27;20068;-81
2022/12/26 09:24:09;;;;;;;11.60;3.75;;;;;;;;;;5101822;28;20057;-81
2022/12/26 09:26:36;;;;;;;12.35;3.92;;;;;;;;;;5110303;27;20162;-81
2022/12/26 09:29:02;;;;;;;9.73;3.83;;;;;;;;;;5108872;27;20151;-80
2022/12/26 09:31:30;;;;;;;7.13;3.97;;;;;;;;;;5093784;27;20391;-81
2022/12/26 09:33:57;;;;;;;9.10;4.40;;;;;;;;;;5102462;27;20533;-80
2022/12/26 09:36:28;;;;;;;11.85;4.22;;;;;;;;;;5108990;27;20536;-81
2022/12/26 09:38:55;;;;;;;8.63;3.45;;;;;;;;;;5108944;27;20063;-81
2022/12/26 09:41:33;;;;;;;11.45;3.40;;;;;;;;;;5111786;27;20142;-81
2022/12/26 09:44:12;;;;;;;7.65;3.22;;;;;;;;;;5108265;27;20070;-79
2022/12/26 09:46:46;;;;;;;8.63;3.58;;;;;;;;;;5110439;27;20056;-78
2022/12/26 09:49:15;;;;;;;13.13;5.25;;;;;;;;;;5109963;27;20056;-79
2022/12/26 09:51:45;;;;;;;18.23;4.40;;;;;;;;;;5111765;27;20525;-79
2022/12/26 09:54:18;;;;;;;10.60;3.85;;;;;;;;;;5107373;28;20568;-78
2022/12/26 09:56:45;;;;;;;15.05;4.18;;;;;;;;;;5102740;27;20044;-78
2022/12/26 09:59:29;;;;;;;13.90;2.97;;;;;;;;;;5103316;27;20468;-78
2022/12/26 10:01:56;;;;;;;8.60;2.60;;;;;;;;;;5120562;27;20052;-78
2022/12/26 10:04:22;;;;;;;8.38;2.60;;;;;;;;;;5103950;27;20036;-78
2022/12/26 10:06:58;;;;;;;19.10;2.50;;;;;;;;;;5102866;27;20419;-78
2022/12/26 10:09:42;;;;;;;11.82;2.40;;;;;;;;;;5110358;27;20465;-78
2022/12/26 10:12:19;;;;;;;19.92;2.25;;;;;;;;;;5110359;27;20044;-78
2022/12/26 10:14:45;;;;;;;8.55;1.50;;;;;;;;;;5108841;27;20052;-77
2022/12/26 10:17:24;;;;;;;18.33;2.22;;;;;;;;;;5106325;27;20628;-79
2022/12/26 10:20:10;;;;;;;11.73;1.40;;;;;;;;;;5109458;27;20052;-79
2022/12/26 10:22:37;;;;;;;12.13;2.50;;;;;;;;;;5054475;27;20112;-79
2022/12/26 10:25:13;;;;;;;13.27;2.25;;;;;;;;;;5106922;28;20136;-78
2022/12/26 10:27:44;;;;;;;12.27;2.00;;;;;;;;;;5107622;27;20052;-78
2022/12/26 10:30:14;;;;;;;12.43;1.73;;;;;;;;;;5108619;27;20048;-78
2022/12/26 10:32:46;;;;;;;15.10;1.98;;;;;;;;;;5110995;27;20051;-78
2022/12/26 10:35:24;;;;;;;12.20;2.08;;;;;;;;;;5108813;27;20090;-78
2022/12/26 10:37:51;;;;;;;7.97;1.67;;;;;;;;;;5109896;27;20048;-78
2022/12/26 10:40:39;;;;;;;7.70;1.45;;;;;;;;;;5106394;27;20067;-77
2022/12/26 10:43:27;;;;;;;9.13;1.42;;;;;;;;;;5098780;27;20096;-78
2022/12/26 10:45:56;;;;;;;9.77;1.48;;;;;;;;;;5100882;28;20488;-78
2022/12/26 10:48:25;;;;;;;11.80;1.65;;;;;;;;;;5109629;27;20048;-78
2022/12/26 10:50:51;;;;;;;8.88;2.08;;;;;;;;;;5106382;27;20048;-78
2022/12/26 10:53:18;;;;;;;8.25;1.52;;;;;;;;;;5111127;27;20103;-78
2022/12/26 10:55:44;;;;;;;12.63;2.65;;;;;;;;;;5106612;27;20139;-78
2022/12/26 10:58:20;;;;;;;8.95;1.60;;;;;;;;;;5104453;27;20139;-78
2022/12/26 11:00:46;;;;;;;10.88;1.95;;;;;;;;;;5103901;27;20518;-78
2022/12/26 11:03:16;;;;;;;13.38;1.90;;;;;;;;;;5102274;28;20044;-78
2022/12/26 11:05:45;;;;;;;6.32;1.45;;;;;;;;;;5105022;27;20075;-78
2022/12/26 11:08:52;;;;;;;7.95;1.60;;;;;;;;;;5101097;27;20045;-78
2022/12/26 11:11:25;;;;;;;14.30;2.50;;;;;;;;;;5098801;27;20083;-78
2022/12/26 11:13:52;;;;;;;11.57;1.85;;;;;;;;;;5109594;27;20631;-77
2022/12/26 11:16:31;;;;;;;9.85;1.80;;;;;;;;;;5102997;27;20053;-78
2022/12/26 11:18:57;;;;;;;16.85;2.20;;;;;;;;;;5099712;27;20067;-78
2022/12/26 11:21:25;;;;;;;18.05;2.50;;;;;;;;;;5102581;27;20048;-78
2022/12/26 11:23:52;;;;;;;11.73;1.83;;;;;;;;;;5105097;28;20093;-78
2022/12/26 11:26:21;;;;;;;24.25;3.45;;;;;;;;;;5104871;27;20062;-78
2022/12/26 11:29:03;;;;;;;11.38;2.20;;;;;;;;;;5105902;27;20059;-78
2022/12/26 11:31:30;;;;;;;8.93;2.75;;;;;;;;;;5106841;28;20060;-78
2022/12/26 11:33:58;;;;;;;10.02;2.50;;;;;;;;;;5107216;28;20056;-78
2022/12/26 11:36:25;;;;;;;9.65;2.88;;;;;;;;;;5107415;27;20076;-78
2022/12/26 11:38:57;;;;;;;13.27;3.22;;;;;;;;;;5103887;27;20047;-78
2022/12/26 11:41:32;;;;;;;10.65;3.30;;;;;;;;;;5107966;27;20064;-78
2022/12/26 11:44:16;;;;;;;8.63;1.63;;;;;;;;;;5107603;27;20063;-78
2022/12/26 11:46:51;;;;;;;10.70;1.60;;;;;;;;;;5106821;27;20059;-78
2022/12/26 11:49:37;;;;;;;12.02;2.75;;;;;;;;;;5107347;27;20917;-78
2022/12/26 11:52:24;;;;;;;6.22;1.20;;;;;;;;;;5106479;27;20098;-78
2022/12/26 11:54:50;;;;;;;7.97;1.35;;;;;;;;;;5106163;27;20087;-78
2022/12/26 11:57:17;;;;;;;7.55;1.30;;;;;;;;;;5105180;27;20063;-78
2022/12/26 11:59:43;;;;;;;2.53;0.70;;;;;;;;;;5103455;28;20052;-77
2022/12/26 12:02:13;;;;;;;6.78;1.15;;;;;;;;;;5103099;27;20048;-78
2022/12/26 12:04:39;;;;;;;4.38;1.10;;;;;;;;;;5107739;27;20065;-78
2022/12/26 12:07:35;;;;;;;7.70;2.03;;;;;;;;;;5115732;27;20517;-78
2022/12/26 12:10:20;;;;;;;10.88;1.65;;;;;;;;;;5092419;27;20149;-78
2022/12/26 12:12:50;;;;;;;7.07;1.60;;;;;;;;;;5105412;27;20052;-78
2022/12/26 12:15:21;;;;;;;6.22;1.17;;;;;;;;;;5107516;27;20064;-78
2022/12/26 12:17:48;;;;;;;;;;;;;;;;;;5107469;27;20143;-78
2022/12/26 12:20:23;;;;;;;7.60;1.48;;;;;;;;;;5105031;27;48211;-78
2022/12/26 12:23:16;;;;;;;4.20;0.98;;;;;;;;;;5099668;28;20152;-78
2022/12/26 12:25:58;;;;;;;5.95;0.90;;;;;;;;;;5100457;27;20131;-78
2022/12/26 12:28:36;;;;;;;7.75;1.00;;;;;;;;;;5102846;28;20510;-78
2022/12/26 12:31:23;;;;;;;6.63;1.25;;;;;;;;;;5102618;27;20087;-78
2022/12/26 12:33:54;;;;;;;6.57;1.15;;;;;;;;;;5106798;28;20052;-78
2022/12/26 12:36:41;;;;;;;7.28;1.23;;;;;;;;;;5106344;27;20143;-78
2022/12/26 12:39:15;;;;;;;5.93;1.08;;;;;;;;;;5098746;27;20057;-78
2022/12/26 12:41:50;;;;;;;6.60;1.17;;;;;;;;;;5105962;27;20155;-78
2022/12/26 12:44:18;;;;;;;7.90;1.20;;;;;;;;;;5106612;27;20055;-78
2022/12/26 12:46:53;;;;;;;5.35;1.00;;;;;;;;;;5105852;27;20408;-78
2022/12/26 12:49:29;;;;;;;5.90;1.00;;;;;;;;;;5105087;27;20530;-78
2022/12/26 12:51:58;;;;;;;6.32;1.27;;;;;;;;;;5106461;27;20048;-78
2022/12/26 12:54:31;;;;;;;8.93;1.00;;;;;;;;;;5109050;27;20152;-78
2022/12/26 12:57:16;;;;;;;7.07;1.00;;;;;;;;;;5106340;27;20845;-78
2022/12/26 12:59:42;;;;;;;4.57;1.23;;;;;;;;;;5108461;28;20056;-78
2022/12/26 13:02:14;;;;;;;5.93;1.40;;;;;;;;;;5110905;27;20051;-78
2022/12/26 13:04:48;;;;;;;9.15;1.02;;;;;;;;;;5108496;27;20086;-79
2022/12/26 13:07:26;;;;;;;5.13;1.45;;;;;;;;;;5107437;27;20071;-79
2022/12/26 13:09:57;;;;;;;6.38;1.70;;;;;;;;;;5097964;27;20056;-80
2022/12/26 13:12:23;;;;;;;;;;;;;;;;;;5105767;28;20058;-79
2022/12/26 13:15:16;;;;;;;7.55;1.45;;;;;;;;;;5106145;28;40799;-78
2022/12/26 13:17:55;;;;;;;4.90;1.42;;;;;;;;;;5081662;27;20131;-78
2022/12/26 13:20:27;;;;;;;10.00;2.38;;;;;;;;;;5106936;28;20043;-79
2022/12/26 13:26:25;;;;;;;7.35;1.27;;;;;;;;;;5087181;27;20693;-79
2022/12/26 13:29:13;;;;;;;11.10;1.90;;;;;;;;;;5050206;27;20140;-78
2022/12/26 13:31:41;;;;;;;13.05;1.20;;;;;;;;;;5101195;27;20051;-79
2022/12/26 13:34:10;;;;;;;5.60;1.10;;;;;;;;;;5098382;28;20054;-78
2022/12/26 13:36:38;;;;;;;7.32;1.42;;;;;;;;;;5101448;27;20473;-78
2022/12/26 13:39:11;;;;;;;4.82;1.17;;;;;;;;;;5100273;27;20061;-78
2022/12/26 13:44:31;;;;;;;8.35;1.55;;;;;;;;;;5104638;27;20062;-79
2022/12/26 13:46:58;;;;;;;6.93;1.60;;;;;;;;;;5099588;27;20056;-79
2022/12/26 13:49:29;;;;;;;5.60;1.23;;;;;;;;;;5109936;27;20083;-78
2022/12/26 13:51:57;;;;;;;5.65;1.48;;;;;;;;;;5109366;27;20048;-79
2022/12/26 13:54:24;;;;;;;5.55;1.23;;;;;;;;;;5117659;27;20048;-78
2022/12/26 13:56:58;;;;;;;10.43;2.35;;;;;;;;;;5102533;27;20059;-79
2022/12/26 13:59:27;;;;;;;6.38;1.60;;;;;;;;;;5106215;27;20106;-79
2022/12/26 14:02:01;;;;;;;6.20;1.00;;;;;;;;;;5103849;27;20109;-78
2022/12/26 14:04:45;;;;;;;4.53;1.08;;;;;;;;;;5109183;27;20063;-79
2022/12/26 14:07:20;;;;;;;5.15;1.33;;;;;;;;;;5107641;27;20052;-79
2022/12/26 14:10:00;;;;;;;6.35;1.45;;;;;;;;;;5108586;28;20262;-79
2022/12/26 14:12:29;;;;;;;9.93;1.85;;;;;;;;;;5104227;27;20055;-78
2022/12/26 14:15:02;;;;;;;7.00;2.10;;;;;;;;;;5104776;28;20052;-79
2022/12/26 14:17:47;;;;;;;9.80;2.08;;;;;;;;;;5107155;27;20047;-78
2022/12/26 14:20:14;;;;;;;7.90;2.10;;;;;;;;;;5105910;27;20131;-80
2022/12/26 14:22:44;;;;;;;9.75;2.00;;;;;;;;;;5100730;28;20052;-78
2022/12/26 14:25:13;;;;;;;10.52;1.95;;;;;;;;;;5104124;28;20062;-78
2022/12/26 14:27:49;;;;;;;8.45;1.60;;;;;;;;;;5102477;28;20047;-78
2022/12/26 14:30:19;;;;;;;6.60;1.10;;;;;;;;;;5104709;28;20056;-79
2022/12/26 14:32:59;;;;;;;7.70;1.95;;;;;;;;;;5106008;27;20058;-78
2022/12/26 14:35:31;;;;;;;7.82;2.20;;;;;;;;;;5104925;28;20546;-80
2022/12/26 14:38:02;;;;;;;8.88;1.45;;;;;;;;;;5103953;28;20483;-80
2022/12/26 14:40:36;;;;;;;6.43;1.23;;;;;;;;;;5105023;28;20135;-78
2022/12/26 14:43:12;;;;;;;7.60;1.23;;;;;;;;;;5103381;27;20059;-80
2022/12/26 14:45:44;;;;;;;13.50;2.13;;;;;;;;;;5107741;27;20052;-79
2022/12/26 14:48:19;;;;;;;7.05;2.00;;;;;;;;;;5107985;28;20052;-78
2022/12/26 14:50:49;;;;;;;13.45;2.65;;;;;;;;;;5107857;27;20052;-79
2022/12/26 14:53:19;;;;;;;10.25;1.50;;;;;;;;;;5098491;28;20103;-78
2022/12/26 14:55:56;;;;;;;3.88;1.20;;;;;;;;;;5102932;27;20071;-78
2022/12/26 14:58:22;;;;;;;7.47;1.92;;;;;;;;;;5104901;27;20102;-79
2022/12/26 15:00:50;;;;;;;9.20;1.40;;;;;;;;;;5106224;27;20514;-78
2022/12/26 15:03:25;;;;;;;5.18;1.15;;;;;;;;;;5100343;28;20056;-79
2022/12/26 15:05:55;;;;;;;10.82;1.58;;;;;;;;;;5103430;27;20942;-77
2022/12/26 15:08:24;;;;;;;11.45;1.63;;;;;;;;;;5106972;27;20059;-79
2022/12/26 15:11:17;;;;;;;9.82;1.35;;;;;;;;;;5106970;28;20152;-78
2022/12/26 15:14:02;;;;;;;9.98;1.60;;;;;;;;;;5073481;28;20044;-77
2022/12/26 15:16:35;;;;;;;7.07;1.48;;;;;;;;;;5095692;27;20082;-77
2022/12/26 15:19:08;;;;;;;9.93;1.60;;;;;;;;;;5106500;27;20721;-78
2022/12/26 15:21:55;;;;;;;15.48;3.83;;;;;;;;;;5104932;28;20058;-78
2022/12/26 15:24:25;;;;;;;14.00;5.03;;;;;;;;;;5095603;27;20056;-79
2022/12/26 15:27:17;;;;;;;14.90;4.18;;;;;;;;;;5102119;27;20058;-78
2022/12/26 15:29:52;;;;;;;8.63;2.72;;;;;;;;;;5094199;28;20057;-78
2022/12/26 15:32:37;;;;;;;14.20;2.95;;;;;;;;;;5106720;28;20056;-78
2022/12/26 15:35:11;;;;;;;10.88;2.33;;;;;;;;;;5103856;28;20151;-79
2022/12/26 15:37:56;;;;;;;11.25;4.55;;;;;;;;;;5102059;28;20614;-78
2022/12/26 15:40:25;;;;;;;18.73;5.57;;;;;;;;;;5106661;28;20067;-79
2022/12/26 15:43:01;;;;;;;20.40;4.80;;;;;;;;;;5096616;27;20127;-78
2022/12/26 15:45:57;;;;;;;12.85;4.00;;;;;;;;;;5104169;28;20160;-78
2022/12/26 15:48:26;;;;;;;18.55;6.50;;;;;;;;;;5076650;27;20048;-78
2022/12/26 15:51:19;;;;;;;17.85;5.45;;;;;;;;;;5108577;27;20063;-79
2022/12/26 15:54:08;;;;;;;14.50;5.32;;;;;;;;;;5102505;27;20427;-79
2022/12/26 15:56:40;;;;;;;6.85;2.20;;;;;;;;;;5072223;27;20059;-78
2022/12/26 15:59:29;;;;;;;12.07;2.33;;;;;;;;;;5104827;27;20726;-78
2022/12/26 16:01:57;;;;;;;8.40;1.70;;;;;;;;;;5106330;27;20048;-77
2022/12/26 16:04:23;;;;;;;24.00;10.20;;;;;;;;;;5095326;28;20064;-79
2022/12/26 16:06:53;;;;;;;41.75;18.35;;;;;;;;;;5105742;27;20055;-78
2022/12/26 16:09:19;;;;;;;29.15;13.02;;;;;;;;;;5105528;27;20495;-79
2022/12/26 16:11:53;;;;;;;20.58;8.95;;;;;;;;;;5106991;28;20060;-79
2022/12/26 16:14:31;;;;;;;13.32;5.20;;;;;;;;;;5108131;27;20577;-78
2022/12/26 16:17:13;;;;;;;13.48;5.55;;;;;;;;;;5106610;27;20135;-79
2022/12/26 16:19:40;;;;;;;12.65;5.63;;;;;;;;;;5101007;27;20139;-79
2022/12/26 16:24:55;;;;;;;19.05;8.18;;;;;;;;;;5108026;27;20056;-78
2022/12/26 16:27:23;;;;;;;15.85;4.25;;;;;;;;;;5113391;27;21453;-80
2022/12/26 16:30:03;;;;;;;10.02;3.03;;;;;;;;;;5111826;27;20087;-78
2022/12/26 16:32:38;;;;;;;10.85;2.72;;;;;;;;;;5103130;28;20044;-79
2022/12/26 16:35:06;;;;;;;56.70;27.13;;;;;;;;;;5109952;27;20055;-79
2022/12/26 16:37:33;;;;;;;91.10;48.13;;;;;;;;;;5108879;27;20063;-79
2022/12/26 16:40:18;;;;;;;58.08;26.63;;;;;;;;;;5101832;27;20056;-80
2022/12/26 16:42:53;;;;;;;32.10;15.55;;;;;;;;;;5105110;28;20063;-78
2022/12/26 16:45:20;;;;;;;27.30;8.00;;;;;;;;;;5101008;27;20135;-79
2022/12/26 16:47:48;;;;;;;15.57;5.88;;;;;;;;;;5104272;27;20948;-78
2022/12/26 16:50:16;;;;;;;13.48;3.90;;;;;;;;;;5100609;28;20060;-79
2022/12/26 16:52:42;;;;;;;10.02;3.88;;;;;;;;;;5111165;27;20091;-81
2022/12/26 16:55:30;;;;;;;10.98;4.65;;;;;;;;;;5102173;27;20104;-81
2022/12/26 16:57:58;;;;;;;9.13;2.20;;;;;;;;;;5104524;27;21656;-79
2022/12/26 17:00:26;;;;;;;9.02;2.38;;;;;;;;;;5099165;28;20491;-80
2022/12/26 17:02:57;;;;;;;9.25;3.10;;;;;;;;;;5108367;27;20040;-78
2022/12/26 17:05:36;;;;;;;8.48;2.25;;;;;;;;;;5108741;27;20068;-77
2022/12/26 17:08:03;;;;;;;9.50;3.17;;;;;;;;;;5109787;28;20054;-78
2022/12/26 17:10:31;;;;;;;9.88;2.60;;;;;;;;;;5104431;27;20054;-80